sensor_id;sensor_type;location;lat;lon;timestamp;pressure;altitude;pressure_sealevel;temperature;humidity
51195;BME280;37259;49.972;19.850;2023-04-02T00:00:14;97620;;;9.6;87.2
51195;BME280;37259;49.972;19.850;2023-04-02T00:01:18;97620;;;9.6;87.2
51195;BME280;37259;49.972;19.850;2023-04-02T00:02:43;97620;;;9.6;87.3
51195;BME280;37259;49.972;19.850;2023-04-02T00:03:06;97620;;;9.6;87.3
51195;BME280;37259;49.972;19.850;2023-04-02T00:04:14;97620;;;9.6;87.4
51195;BME280;37259;49.972;19.850;2023-04-02T00:05:26;97620;;;9.6;87.4
51195;BME280;37259;49.972;19.850;2023-04-02T00:06:12;97620;;;9.6;87.4
51195;BME280;37259;49.972;19.850;2023-04-02T00:07:23;97620;;;9.6;87.4
51195;BME280;37259;49.972;19.850;2023-04-02T00:08:16;97620;;;9.6;87.4
51195;BME280;37259;49.972;19.850;2023-04-02T00:09:23;97620;;;9.6;87.4
51195;BME280;37259;49.972;19.850;2023-04-02T00:10:23;97620;;;9.5;87.6
51195;BME280;37259;49.972;19.850;2023-04-02T00:11:06;97620;;;9.5;87.5
51195;BME280;37259;49.972;19.850;2023-04-02T00:12:14;97620;;;9.6;87.6
51195;BME280;37259;49.972;19.850;2023-04-02T00:13:17;97620;;;9.6;87.6
51195;BME280;37259;49.972;19.850;2023-04-02T00:14:12;97620;;;9.5;87.6
51195;BME280;37259;49.972;19.850;2023-04-02T00:15:07;97620;;;9.5;87.6
51195;BME280;37259;49.972;19.850;2023-04-02T00:16:07;97620;;;9.5;87.6
51195;BME280;37259;49.972;19.850;2023-04-02T00:17:06;97620;;;9.6;87.6
51195;BME280;37259;49.972;19.850;2023-04-02T00:18:06;97620;;;9.6;87.7
51195;BME280;37259;49.972;19.850;2023-04-02T00:19:06;97620;;;9.6;87.7
51195;BME280;37259;49.972;19.850;2023-04-02T00:20:06;97620;;;9.6;87.6
51195;BME280;37259;49.972;19.850;2023-04-02T00:21:09;97630;;;9.6;87.6
51195;BME280;37259;49.972;19.850;2023-04-02T00:22:06;97630;;;9.6;87.6
51195;BME280;37259;49.972;19.850;2023-04-02T00:23:06;97630;;;9.6;87.7
51195;BME280;37259;49.972;19.850;2023-04-02T00:24:09;97630;;;9.6;87.7
51195;BME280;37259;49.972;19.850;2023-04-02T00:25:07;97630;;;9.6;87.6
51195;BME280;37259;49.972;19.850;2023-04-02T00:26:17;97630;;;9.6;87.7
51195;BME280;37259;49.972;19.850;2023-04-02T00:27:08;97630;;;9.6;87.7
51195;BME280;37259;49.972;19.850;2023-04-02T00:28:08;97630;;;9.5;87.6
51195;BME280;37259;49.972;19.850;2023-04-02T00:29:06;97630;;;9.5;87.6
51195;BME280;37259;49.972;19.850;2023-04-02T00:30:06;97630;;;9.6;87.7
51195;BME280;37259;49.972;19.850;2023-04-02T00:31:08;97630;;;9.6;87.7
51195;BME280;37259;49.972;19.850;2023-04-02T00:32:08;97630;;;9.6;87.7
51195;BME280;37259;49.972;19.850;2023-04-02T00:33:10;97630;;;9.6;87.7
51195;BME280;37259;49.972;19.850;2023-04-02T00:34:07;97630;;;9.5;87.7
51195;BME280;37259;49.972;19.850;2023-04-02T00:35:08;97630;;;9.5;87.7
51195;BME280;37259;49.972;19.850;2023-04-02T00:36:07;97630;;;9.5;87.7
51195;BME280;37259;49.972;19.850;2023-04-02T00:37:06;97630;;;9.5;87.7
51195;BME280;37259;49.972;19.850;2023-04-02T00:38:07;97630;;;9.5;87.8
51195;BME280;37259;49.972;19.850;2023-04-02T00:39:06;97630;;;9.5;87.8
51195;BME280;37259;49.972;19.850;2023-04-02T00:40:07;97630;;;9.5;87.8
51195;BME280;37259;49.972;19.850;2023-04-02T00:41:06;97630;;;9.5;87.8
51195;BME280;37259;49.972;19.850;2023-04-02T00:42:06;97630;;;9.6;87.8
51195;BME280;37259;49.972;19.850;2023-04-02T00:43:06;97640;;;9.5;87.8
51195;BME280;37259;49.972;19.850;2023-04-02T00:44:06;97640;;;9.6;87.8
51195;BME280;37259;49.972;19.850;2023-04-02T00:45:09;97640;;;9.6;87.8
51195;BME280;37259;49.972;19.850;2023-04-02T00:46:07;97640;;;9.6;87.8
51195;BME280;37259;49.972;19.850;2023-04-02T00:47:09;97640;;;9.6;87.8
51195;BME280;37259;49.972;19.850;2023-04-02T00:48:12;97640;;;9.6;87.8
51195;BME280;37259;49.972;19.850;2023-04-02T00:49:06;97640;;;9.6;87.8
51195;BME280;37259;49.972;19.850;2023-04-02T00:50:07;97640;;;9.6;87.8
51195;BME280;37259;49.972;19.850;2023-04-02T00:51:09;97640;;;9.6;87.8
51195;BME280;37259;49.972;19.850;2023-04-02T00:52:06;97640;;;9.7;87.7
51195;BME280;37259;49.972;19.850;2023-04-02T00:53:07;97640;;;9.7;87.7
51195;BME280;37259;49.972;19.850;2023-04-02T00:54:08;97640;;;9.7;87.7
51195;BME280;37259;49.972;19.850;2023-04-02T00:55:07;97640;;;9.7;87.7
51195;BME280;37259;49.972;19.850;2023-04-02T00:56:10;97640;;;9.7;87.7
51195;BME280;37259;49.972;19.850;2023-04-02T00:57:09;97640;;;9.7;87.7
51195;BME280;37259;49.972;19.850;2023-04-02T00:58:11;97640;;;9.7;87.7
51195;BME280;37259;49.972;19.850;2023-04-02T00:59:12;97640;;;9.7;87.7
51195;BME280;37259;49.972;19.850;2023-04-02T01:00:13;97650;;;9.8;87.7
51195;BME280;37259;49.972;19.850;2023-04-02T01:01:13;97650;;;9.8;87.7
51195;BME280;37259;49.972;19.850;2023-04-02T01:02:19;97650;;;9.8;87.7
51195;BME280;37259;49.972;19.850;2023-04-02T01:03:21;97650;;;9.8;87.6
51195;BME280;37259;49.972;19.850;2023-04-02T01:04:15;97650;;;9.8;87.6
51195;BME280;37259;49.972;19.850;2023-04-02T01:05:19;97650;;;9.8;87.5
51195;BME280;37259;49.972;19.850;2023-04-02T01:06:06;97650;;;9.8;87.5
51195;BME280;37259;49.972;19.850;2023-04-02T01:07:07;97660;;;9.8;87.4
51195;BME280;37259;49.972;19.850;2023-04-02T01:08:06;97660;;;9.8;87.4
51195;BME280;37259;49.972;19.850;2023-04-02T01:09:08;97660;;;9.8;87.4
51195;BME280;37259;49.972;19.850;2023-04-02T01:10:11;97660;;;9.7;87.3
51195;BME280;37259;49.972;19.850;2023-04-02T01:11:08;97660;;;9.7;87.3
51195;BME280;37259;49.972;19.850;2023-04-02T01:12:09;97660;;;9.7;87.3
51195;BME280;37259;49.972;19.850;2023-04-02T01:13:08;97660;;;9.7;87.3
51195;BME280;37259;49.972;19.850;2023-04-02T01:14:08;97660;;;9.7;87.3
51195;BME280;37259;49.972;19.850;2023-04-02T01:15:07;97660;;;9.7;87.4
51195;BME280;37259;49.972;19.850;2023-04-02T01:16:08;97660;;;9.7;87.4
51195;BME280;37259;49.972;19.850;2023-04-02T01:17:08;97660;;;9.7;87.4
51195;BME280;37259;49.972;19.850;2023-04-02T01:18:11;97670;;;9.7;87.4
51195;BME280;37259;49.972;19.850;2023-04-02T01:19:09;97670;;;9.7;87.4
51195;BME280;37259;49.972;19.850;2023-04-02T01:21:09;97670;;;9.7;87.4
51195;BME280;37259;49.972;19.850;2023-04-02T01:21:15;97660;;;9.7;87.4
51195;BME280;37259;49.972;19.850;2023-04-02T01:22:06;97670;;;9.7;87.4
51195;BME280;37259;49.972;19.850;2023-04-02T01:23:06;97670;;;9.7;87.4
51195;BME280;37259;49.972;19.850;2023-04-02T01:24:06;97670;;;9.7;87.4
51195;BME280;37259;49.972;19.850;2023-04-02T01:25:06;97670;;;9.8;87.4
51195;BME280;37259;49.972;19.850;2023-04-02T01:26:08;97670;;;9.8;87.4
51195;BME280;37259;49.972;19.850;2023-04-02T01:27:06;97670;;;9.8;87.4
51195;BME280;37259;49.972;19.850;2023-04-02T01:28:07;97670;;;9.8;87.4
51195;BME280;37259;49.972;19.850;2023-04-02T01:29:07;97670;;;9.8;87.4
51195;BME280;37259;49.972;19.850;2023-04-02T01:30:06;97670;;;9.8;87.2
51195;BME280;37259;49.972;19.850;2023-04-02T01:31:06;97670;;;9.8;87.2
51195;BME280;37259;49.972;19.850;2023-04-02T01:32:06;97670;;;9.8;87.2
51195;BME280;37259;49.972;19.850;2023-04-02T01:33:06;97670;;;9.7;87.3
51195;BME280;37259;49.972;19.850;2023-04-02T01:34:06;97670;;;9.7;87.3
51195;BME280;37259;49.972;19.850;2023-04-02T01:35:06;97670;;;9.7;87.3
51195;BME280;37259;49.972;19.850;2023-04-02T01:36:08;97670;;;9.7;87.4
51195;BME280;37259;49.972;19.850;2023-04-02T01:37:09;97670;;;9.7;87.5
51195;BME280;37259;49.972;19.850;2023-04-02T01:38:07;97670;;;9.7;87.5
51195;BME280;37259;49.972;19.850;2023-04-02T01:39:08;97670;;;9.7;87.5
51195;BME280;37259;49.972;19.850;2023-04-02T01:40:13;97670;;;9.7;87.5
51195;BME280;37259;49.972;19.850;2023-04-02T01:41:07;97670;;;9.7;87.5
51195;BME280;37259;49.972;19.850;2023-04-02T01:42:07;97670;;;9.7;87.5
51195;BME280;37259;49.972;19.850;2023-04-02T01:43:09;97670;;;9.8;87.4
51195;BME280;37259;49.972;19.850;2023-04-02T01:44:06;97670;;;9.8;87.4
51195;BME280;37259;49.972;19.850;2023-04-02T01:45:08;97670;;;9.7;87.4
51195;BME280;37259;49.972;19.850;2023-04-02T01:46:22;97670;;;9.7;87.4
51195;BME280;37259;49.972;19.850;2023-04-02T01:47:06;97670;;;9.8;87.4
51195;BME280;37259;49.972;19.850;2023-04-02T01:48:08;97670;;;9.7;87.2
51195;BME280;37259;49.972;19.850;2023-04-02T01:49:09;97670;;;9.7;87.2
51195;BME280;37259;49.972;19.850;2023-04-02T01:50:12;97670;;;9.7;87.2
51195;BME280;37259;49.972;19.850;2023-04-02T01:51:06;97670;;;9.7;87.2
51195;BME280;37259;49.972;19.850;2023-04-02T01:52:06;97670;;;9.7;87.3
51195;BME280;37259;49.972;19.850;2023-04-02T01:53:07;97670;;;9.7;87.3
51195;BME280;37259;49.972;19.850;2023-04-02T01:54:06;97670;;;9.7;87.3
51195;BME280;37259;49.972;19.850;2023-04-02T01:55:06;97670;;;9.8;87.3
51195;BME280;37259;49.972;19.850;2023-04-02T01:56:06;97670;;;9.8;87.3
51195;BME280;37259;49.972;19.850;2023-04-02T01:57:06;97670;;;9.8;87.3
51195;BME280;37259;49.972;19.850;2023-04-02T01:58:06;97670;;;9.8;87.3
51195;BME280;37259;49.972;19.850;2023-04-02T01:59:06;97680;;;9.8;87.3
51195;BME280;37259;49.972;19.850;2023-04-02T02:00:06;97680;;;9.8;87.3
51195;BME280;37259;49.972;19.850;2023-04-02T02:01:06;97680;;;9.9;87.2
51195;BME280;37259;49.972;19.850;2023-04-02T02:02:07;97680;;;9.9;87.2
51195;BME280;37259;49.972;19.850;2023-04-02T02:03:06;97680;;;9.9;87.2
51195;BME280;37259;49.972;19.850;2023-04-02T02:04:07;97680;;;9.9;87.2
51195;BME280;37259;49.972;19.850;2023-04-02T02:05:08;97680;;;9.9;87.1
51195;BME280;37259;49.972;19.850;2023-04-02T02:06:08;97690;;;9.9;87.1
51195;BME280;37259;49.972;19.850;2023-04-02T02:07:10;97690;;;9.9;87.1
51195;BME280;37259;49.972;19.850;2023-04-02T02:08:06;97690;;;9.9;87
51195;BME280;37259;49.972;19.850;2023-04-02T02:09:06;97690;;;9.9;87
51195;BME280;37259;49.972;19.850;2023-04-02T02:10:06;97690;;;9.9;86.9
51195;BME280;37259;49.972;19.850;2023-04-02T02:11:06;97690;;;9.9;86.9
51195;BME280;37259;49.972;19.850;2023-04-02T02:12:06;97690;;;9.9;86.8
51195;BME280;37259;49.972;19.850;2023-04-02T02:13:09;97690;;;9.9;86.8
51195;BME280;37259;49.972;19.850;2023-04-02T02:14:08;97690;;;9.9;86.8
51195;BME280;37259;49.972;19.850;2023-04-02T02:15:07;97690;;;9.9;86.8
51195;BME280;37259;49.972;19.850;2023-04-02T02:16:09;97690;;;9.9;86.8
51195;BME280;37259;49.972;19.850;2023-04-02T02:17:06;97690;;;9.9;86.8
51195;BME280;37259;49.972;19.850;2023-04-02T02:18:06;97690;;;9.9;86.8
51195;BME280;37259;49.972;19.850;2023-04-02T02:19:07;97690;;;9.9;86.7
51195;BME280;37259;49.972;19.850;2023-04-02T02:20:06;97690;;;9.9;86.7
51195;BME280;37259;49.972;19.850;2023-04-02T02:21:07;97690;;;9.9;86.6
51195;BME280;37259;49.972;19.850;2023-04-02T02:22:07;97690;;;9.9;86.6
51195;BME280;37259;49.972;19.850;2023-04-02T02:23:06;97690;;;9.9;86.5
51195;BME280;37259;49.972;19.850;2023-04-02T02:24:08;97690;;;10;86.5
51195;BME280;37259;49.972;19.850;2023-04-02T02:25:09;97690;;;10;86.5
51195;BME280;37259;49.972;19.850;2023-04-02T02:26:06;97690;;;10;86.5
51195;BME280;37259;49.972;19.850;2023-04-02T02:27:13;97690;;;10;86.4
51195;BME280;37259;49.972;19.850;2023-04-02T02:28:07;97690;;;10;86.4
51195;BME280;37259;49.972;19.850;2023-04-02T02:29:06;97700;;;10;86.3
51195;BME280;37259;49.972;19.850;2023-04-02T02:30:08;97700;;;9.9;86.3
51195;BME280;37259;49.972;19.850;2023-04-02T02:31:06;97700;;;10;86.3
51195;BME280;37259;49.972;19.850;2023-04-02T02:32:06;97700;;;10;86.3
51195;BME280;37259;49.972;19.850;2023-04-02T02:33:07;97690;;;10;86.2
51195;BME280;37259;49.972;19.850;2023-04-02T02:34:07;97690;;;10;86.2
51195;BME280;37259;49.972;19.850;2023-04-02T02:35:06;97690;;;10;86.2
51195;BME280;37259;49.972;19.850;2023-04-02T02:36:06;97690;;;9.9;86
51195;BME280;37259;49.972;19.850;2023-04-02T02:37:09;97690;;;9.9;86
51195;BME280;37259;49.972;19.850;2023-04-02T02:38:43;97690;;;9.9;86.1
51195;BME280;37259;49.972;19.850;2023-04-02T02:39:09;97690;;;9.9;86.1
51195;BME280;37259;49.972;19.850;2023-04-02T02:40:09;97700;;;9.9;86.1
51195;BME280;37259;49.972;19.850;2023-04-02T02:41:07;97700;;;9.9;86.1
51195;BME280;37259;49.972;19.850;2023-04-02T02:42:07;97700;;;9.9;86
51195;BME280;37259;49.972;19.850;2023-04-02T02:43:07;97700;;;9.9;86
51195;BME280;37259;49.972;19.850;2023-04-02T02:44:09;97700;;;9.9;86
51195;BME280;37259;49.972;19.850;2023-04-02T02:45:09;97700;;;9.9;85.9
51195;BME280;37259;49.972;19.850;2023-04-02T02:46:06;97700;;;9.9;85.9
51195;BME280;37259;49.972;19.850;2023-04-02T02:47:08;97700;;;9.9;85.9
51195;BME280;37259;49.972;19.850;2023-04-02T02:48:08;97700;;;9.9;85.9
51195;BME280;37259;49.972;19.850;2023-04-02T02:49:06;97700;;;9.9;85.8
51195;BME280;37259;49.972;19.850;2023-04-02T02:50:07;97700;;;9.9;85.8
51195;BME280;37259;49.972;19.850;2023-04-02T02:51:07;97710;;;9.9;85.8
51195;BME280;37259;49.972;19.850;2023-04-02T02:52:11;97710;;;9.9;85.8
51195;BME280;37259;49.972;19.850;2023-04-02T02:53:11;97710;;;9.9;85.7
51195;BME280;37259;49.972;19.850;2023-04-02T02:54:06;97710;;;9.9;85.7
51195;BME280;37259;49.972;19.850;2023-04-02T02:55:06;97710;;;9.9;85.6
51195;BME280;37259;49.972;19.850;2023-04-02T02:56:06;97710;;;9.8;85.5
51195;BME280;37259;49.972;19.850;2023-04-02T02:57:06;97710;;;9.8;85.5
51195;BME280;37259;49.972;19.850;2023-04-02T02:58:06;97710;;;9.8;85.6
51195;BME280;37259;49.972;19.850;2023-04-02T02:59:06;97710;;;9.8;85.6
51195;BME280;37259;49.972;19.850;2023-04-02T03:00:06;97710;;;9.8;85.7
51195;BME280;37259;49.972;19.850;2023-04-02T03:01:06;97710;;;9.8;85.7
51195;BME280;37259;49.972;19.850;2023-04-02T03:02:06;97720;;;9.8;85.7
51195;BME280;37259;49.972;19.850;2023-04-02T03:03:08;97720;;;9.8;85.7
51195;BME280;37259;49.972;19.850;2023-04-02T03:04:06;97720;;;9.8;85.6
51195;BME280;37259;49.972;19.850;2023-04-02T03:05:06;97720;;;9.8;85.6
51195;BME280;37259;49.972;19.850;2023-04-02T03:06:07;97720;;;9.8;85.7
51195;BME280;37259;49.972;19.850;2023-04-02T03:07:06;97720;;;9.8;85.7
51195;BME280;37259;49.972;19.850;2023-04-02T03:08:08;97720;;;9.7;85.7
51195;BME280;37259;49.972;19.850;2023-04-02T03:09:09;97720;;;9.7;85.7
51195;BME280;37259;49.972;19.850;2023-04-02T03:10:09;97720;;;9.7;85.9
51195;BME280;37259;49.972;19.850;2023-04-02T03:11:07;97720;;;9.7;85.9
51195;BME280;37259;49.972;19.850;2023-04-02T03:12:20;97720;;;9.7;86
51195;BME280;37259;49.972;19.850;2023-04-02T03:13:07;97720;;;9.7;86
51195;BME280;37259;49.972;19.850;2023-04-02T03:14:09;97720;;;9.7;85.9
51195;BME280;37259;49.972;19.850;2023-04-02T03:15:09;97720;;;9.6;85.8
51195;BME280;37259;49.972;19.850;2023-04-02T03:16:08;97720;;;9.6;85.8
51195;BME280;37259;49.972;19.850;2023-04-02T03:17:08;97720;;;9.6;85.7
51195;BME280;37259;49.972;19.850;2023-04-02T03:18:07;97720;;;9.6;85.7
51195;BME280;37259;49.972;19.850;2023-04-02T03:19:07;97720;;;9.5;85.5
51195;BME280;37259;49.972;19.850;2023-04-02T03:20:09;97720;;;9.5;85.5
51195;BME280;37259;49.972;19.850;2023-04-02T03:21:09;97730;;;9.4;85.4
51195;BME280;37259;49.972;19.850;2023-04-02T03:22:07;97730;;;9.4;85.3
51195;BME280;37259;49.972;19.850;2023-04-02T03:23:07;97730;;;9.4;85.3
51195;BME280;37259;49.972;19.850;2023-04-02T03:24:08;97730;;;9.4;85.3
51195;BME280;37259;49.972;19.850;2023-04-02T03:25:10;97730;;;9.4;85.3
51195;BME280;37259;49.972;19.850;2023-04-02T03:26:07;97730;;;9.4;85.3
51195;BME280;37259;49.972;19.850;2023-04-02T03:27:09;97730;;;9.3;85.1
51195;BME280;37259;49.972;19.850;2023-04-02T03:28:07;97730;;;9.3;85.1
51195;BME280;37259;49.972;19.850;2023-04-02T03:29:07;97730;;;9.3;85.1
51195;BME280;37259;49.972;19.850;2023-04-02T03:30:13;97730;;;9.4;85.2
51195;BME280;37259;49.972;19.850;2023-04-02T03:31:07;97730;;;9.4;85.2
51195;BME280;37259;49.972;19.850;2023-04-02T03:32:07;97730;;;9.4;85.2
51195;BME280;37259;49.972;19.850;2023-04-02T03:33:08;97730;;;9.4;85.2
51195;BME280;37259;49.972;19.850;2023-04-02T03:34:07;97730;;;9.4;85.2
51195;BME280;37259;49.972;19.850;2023-04-02T03:35:09;97730;;;9.4;85.2
51195;BME280;37259;49.972;19.850;2023-04-02T03:36:10;97730;;;9.4;85.1
51195;BME280;37259;49.972;19.850;2023-04-02T03:37:07;97740;;;9.4;85.1
51195;BME280;37259;49.972;19.850;2023-04-02T03:38:09;97740;;;9.4;85.1
51195;BME280;37259;49.972;19.850;2023-04-02T03:39:08;97740;;;9.4;85.1
51195;BME280;37259;49.972;19.850;2023-04-02T03:40:07;97740;;;9.4;85.1
51195;BME280;37259;49.972;19.850;2023-04-02T03:41:09;97740;;;9.4;85.1
51195;BME280;37259;49.972;19.850;2023-04-02T03:42:06;97740;;;9.4;85
51195;BME280;37259;49.972;19.850;2023-04-02T03:43:11;97740;;;9.4;85
51195;BME280;37259;49.972;19.850;2023-04-02T03:44:10;97740;;;9.4;85
51195;BME280;37259;49.972;19.850;2023-04-02T03:45:09;97740;;;9.3;85
51195;BME280;37259;49.972;19.850;2023-04-02T03:46:09;97740;;;9.3;85
51195;BME280;37259;49.972;19.850;2023-04-02T03:47:09;97740;;;9.3;85
51195;BME280;37259;49.972;19.850;2023-04-02T03:48:07;97740;;;9.3;85
51195;BME280;37259;49.972;19.850;2023-04-02T03:49:06;97740;;;9.3;85
51195;BME280;37259;49.972;19.850;2023-04-02T03:50:07;97740;;;9.3;85
51195;BME280;37259;49.972;19.850;2023-04-02T03:51:08;97740;;;9.3;85
51195;BME280;37259;49.972;19.850;2023-04-02T03:52:08;97750;;;9.3;85
51195;BME280;37259;49.972;19.850;2023-04-02T03:53:06;97750;;;9.3;85
51195;BME280;37259;49.972;19.850;2023-04-02T03:54:07;97750;;;9.2;84.9
51195;BME280;37259;49.972;19.850;2023-04-02T03:55:09;97750;;;9.2;84.9
51195;BME280;37259;49.972;19.850;2023-04-02T03:56:06;97750;;;9.3;85
51195;BME280;37259;49.972;19.850;2023-04-02T03:57:08;97750;;;9.3;85
51195;BME280;37259;49.972;19.850;2023-04-02T03:58:06;97760;;;9.3;85
51195;BME280;37259;49.972;19.850;2023-04-02T03:59:10;97760;;;9.2;85
51195;BME280;37259;49.972;19.850;2023-04-02T04:00:07;97760;;;9.3;85
51195;BME280;37259;49.972;19.850;2023-04-02T04:01:07;97760;;;9.3;85
51195;BME280;37259;49.972;19.850;2023-04-02T04:02:10;97760;;;9.3;85
51195;BME280;37259;49.972;19.850;2023-04-02T04:03:08;97760;;;9.2;85.1
51195;BME280;37259;49.972;19.850;2023-04-02T04:04:07;97760;;;9.2;85.1
51195;BME280;37259;49.972;19.850;2023-04-02T04:05:06;97760;;;9.2;85.2
51195;BME280;37259;49.972;19.850;2023-04-02T04:06:06;97760;;;9.2;85.2
51195;BME280;37259;49.972;19.850;2023-04-02T04:07:08;97760;;;9.2;85.2
51195;BME280;37259;49.972;19.850;2023-04-02T04:08:06;97760;;;9.2;85.2
51195;BME280;37259;49.972;19.850;2023-04-02T04:09:06;97770;;;9.2;85.3
51195;BME280;37259;49.972;19.850;2023-04-02T04:10:06;97770;;;9.2;85.3
51195;BME280;37259;49.972;19.850;2023-04-02T04:11:06;97770;;;9.2;85.3
51195;BME280;37259;49.972;19.850;2023-04-02T04:12:09;97770;;;9.3;85.3
51195;BME280;37259;49.972;19.850;2023-04-02T04:13:08;97770;;;9.3;85.3
51195;BME280;37259;49.972;19.850;2023-04-02T04:14:07;97770;;;9.2;85.3
51195;BME280;37259;49.972;19.850;2023-04-02T04:15:07;97770;;;9.2;85.3
51195;BME280;37259;49.972;19.850;2023-04-02T04:16:07;97770;;;9.2;85.3
51195;BME280;37259;49.972;19.850;2023-04-02T04:17:09;97770;;;9.2;85.3
51195;BME280;37259;49.972;19.850;2023-04-02T04:18:08;97770;;;9.2;85.3
51195;BME280;37259;49.972;19.850;2023-04-02T04:19:08;97770;;;9.2;85.3
51195;BME280;37259;49.972;19.850;2023-04-02T04:20:10;97770;;;9.2;85.3
51195;BME280;37259;49.972;19.850;2023-04-02T04:21:10;97770;;;9.2;85.3
51195;BME280;37259;49.972;19.850;2023-04-02T04:22:07;97780;;;9.2;85.4
51195;BME280;37259;49.972;19.850;2023-04-02T04:23:07;97780;;;9.3;85.4
51195;BME280;37259;49.972;19.850;2023-04-02T04:24:10;97780;;;9.3;85.4
51195;BME280;37259;49.972;19.850;2023-04-02T04:25:16;97780;;;9.3;85.3
51195;BME280;37259;49.972;19.850;2023-04-02T04:26:07;97780;;;9.3;85.3
51195;BME280;37259;49.972;19.850;2023-04-02T04:27:07;97790;;;9.3;85.3
51195;BME280;37259;49.972;19.850;2023-04-02T04:28:08;97790;;;9.3;85.2
51195;BME280;37259;49.972;19.850;2023-04-02T04:29:12;97790;;;9.3;85.2
51195;BME280;37259;49.972;19.850;2023-04-02T04:30:06;97790;;;9.3;85.1
51195;BME280;37259;49.972;19.850;2023-04-02T04:31:09;97790;;;9.3;85.1
51195;BME280;37259;49.972;19.850;2023-04-02T04:32:08;97790;;;9.3;85.1
51195;BME280;37259;49.972;19.850;2023-04-02T04:33:09;97790;;;9.3;85.1
51195;BME280;37259;49.972;19.850;2023-04-02T04:34:07;97790;;;9.2;84.9
51195;BME280;37259;49.972;19.850;2023-04-02T04:35:07;97790;;;9.1;84.9
51195;BME280;37259;49.972;19.850;2023-04-02T04:36:14;97790;;;9.1;84.9
51195;BME280;37259;49.972;19.850;2023-04-02T04:37:13;97790;;;9.1;85
51195;BME280;37259;49.972;19.850;2023-04-02T04:38:09;97790;;;9.1;85
51195;BME280;37259;49.972;19.850;2023-04-02T04:39:07;97800;;;9.1;85
51195;BME280;37259;49.972;19.850;2023-04-02T04:40:09;97800;;;9.1;85
51195;BME280;37259;49.972;19.850;2023-04-02T04:41:10;97800;;;9.1;84.9
51195;BME280;37259;49.972;19.850;2023-04-02T04:42:06;97800;;;9.1;84.9
51195;BME280;37259;49.972;19.850;2023-04-02T04:43:06;97800;;;9.1;84.9
51195;BME280;37259;49.972;19.850;2023-04-02T04:44:06;97800;;;9.1;84.9
51195;BME280;37259;49.972;19.850;2023-04-02T04:45:08;97800;;;9.1;85
51195;BME280;37259;49.972;19.850;2023-04-02T04:46:08;97800;;;9.1;85
51195;BME280;37259;49.972;19.850;2023-04-02T04:47:07;97810;;;9;85
51195;BME280;37259;49.972;19.850;2023-04-02T04:48:07;97810;;;9.1;85.1
51195;BME280;37259;49.972;19.850;2023-04-02T04:49:07;97810;;;9;85.2
51195;BME280;37259;49.972;19.850;2023-04-02T04:50:07;97810;;;9;85.2
51195;BME280;37259;49.972;19.850;2023-04-02T04:51:07;97810;;;9;85.2
51195;BME280;37259;49.972;19.850;2023-04-02T04:52:06;97810;;;9.1;85.1
51195;BME280;37259;49.972;19.850;2023-04-02T04:53:07;97810;;;9.1;85.1
51195;BME280;37259;49.972;19.850;2023-04-02T04:54:08;97810;;;9.1;85.1
51195;BME280;37259;49.972;19.850;2023-04-02T04:55:17;97810;;;9.1;85.1
51195;BME280;37259;49.972;19.850;2023-04-02T04:56:06;97820;;;9.1;85
51195;BME280;37259;49.972;19.850;2023-04-02T04:57:06;97810;;;9.1;85
51195;BME280;37259;49.972;19.850;2023-04-02T04:58:08;97820;;;9.1;85
51195;BME280;37259;49.972;19.850;2023-04-02T04:59:11;97820;;;9.1;85
51195;BME280;37259;49.972;19.850;2023-04-02T05:00:09;97820;;;9.1;85
51195;BME280;37259;49.972;19.850;2023-04-02T05:01:08;97820;;;9.1;85
51195;BME280;37259;49.972;19.850;2023-04-02T05:02:07;97820;;;9.1;84.9
51195;BME280;37259;49.972;19.850;2023-04-02T05:03:08;97820;;;9.1;84.9
51195;BME280;37259;49.972;19.850;2023-04-02T05:04:08;97820;;;9;85
51195;BME280;37259;49.972;19.850;2023-04-02T05:05:14;97820;;;9;85
51195;BME280;37259;49.972;19.850;2023-04-02T05:06:08;97830;;;9.1;85
51195;BME280;37259;49.972;19.850;2023-04-02T05:07:07;97830;;;9;85
51195;BME280;37259;49.972;19.850;2023-04-02T05:08:09;97830;;;9;84.9
51195;BME280;37259;49.972;19.850;2023-04-02T05:09:10;97830;;;9;84.9
51195;BME280;37259;49.972;19.850;2023-04-02T05:10:07;97830;;;8.9;84.9
51195;BME280;37259;49.972;19.850;2023-04-02T05:11:07;97830;;;8.9;84.9
51195;BME280;37259;49.972;19.850;2023-04-02T05:12:07;97830;;;8.9;84.9
51195;BME280;37259;49.972;19.850;2023-04-02T05:13:08;97830;;;8.9;85
51195;BME280;37259;49.972;19.850;2023-04-02T05:14:07;97830;;;8.9;85
51195;BME280;37259;49.972;19.850;2023-04-02T05:15:09;97830;;;8.9;85
51195;BME280;37259;49.972;19.850;2023-04-02T05:16:08;97830;;;8.9;85.1
51195;BME280;37259;49.972;19.850;2023-04-02T05:17:07;97830;;;8.9;85.1
51195;BME280;37259;49.972;19.850;2023-04-02T05:18:10;97830;;;8.9;85.2
51195;BME280;37259;49.972;19.850;2023-04-02T05:19:07;97830;;;8.9;85.2
51195;BME280;37259;49.972;19.850;2023-04-02T05:20:09;97840;;;9;85.2
51195;BME280;37259;49.972;19.850;2023-04-02T05:21:06;97830;;;9;85.2
51195;BME280;37259;49.972;19.850;2023-04-02T05:22:11;97840;;;9;85.2
51195;BME280;37259;49.972;19.850;2023-04-02T05:23:09;97840;;;9;85.2
51195;BME280;37259;49.972;19.850;2023-04-02T05:24:15;97840;;;9;85
51195;BME280;37259;49.972;19.850;2023-04-02T05:25:09;97840;;;9;85
51195;BME280;37259;49.972;19.850;2023-04-02T05:26:07;97840;;;9;85
51195;BME280;37259;49.972;19.850;2023-04-02T05:27:08;97840;;;9.1;85
51195;BME280;37259;49.972;19.850;2023-04-02T05:28:09;97840;;;9.1;85
51195;BME280;37259;49.972;19.850;2023-04-02T05:29:07;97850;;;9.1;85
51195;BME280;37259;49.972;19.850;2023-04-02T05:30:08;97850;;;9.1;85
51195;BME280;37259;49.972;19.850;2023-04-02T05:31:07;97850;;;9.1;85
51195;BME280;37259;49.972;19.850;2023-04-02T05:32:07;97850;;;9.1;85
51195;BME280;37259;49.972;19.850;2023-04-02T05:33:13;97850;;;9.1;84.8
51195;BME280;37259;49.972;19.850;2023-04-02T05:34:06;97850;;;9;84.8
51195;BME280;37259;49.972;19.850;2023-04-02T05:35:09;97850;;;9;84.8
51195;BME280;37259;49.972;19.850;2023-04-02T05:36:07;97850;;;9;84.8
51195;BME280;37259;49.972;19.850;2023-04-02T05:37:06;97850;;;9.1;84.8
51195;BME280;37259;49.972;19.850;2023-04-02T05:38:06;97850;;;9.1;84.8
51195;BME280;37259;49.972;19.850;2023-04-02T05:39:07;97850;;;9.1;84.7
51195;BME280;37259;49.972;19.850;2023-04-02T05:40:09;97860;;;9.2;84.7
51195;BME280;37259;49.972;19.850;2023-04-02T05:41:06;97860;;;9.2;84.7
51195;BME280;37259;49.972;19.850;2023-04-02T05:42:06;97860;;;9.1;84.6